sensor_id;sensor_type;location;lat;lon;timestamp;P1;durP1;ratioP1;P2;durP2;ratioP2
33824;SDS011;20127;48.962;8.342;2024-03-07T00:00:03;43.65;;;29.83;;
33824;SDS011;20127;48.962;8.342;2024-03-07T00:01:20;49.83;;;28.05;;
33824;SDS011;20127;48.962;8.342;2024-03-07T00:02:34;52.85;;;28.88;;
33824;SDS011;20127;48.962;8.342;2024-03-07T00:03:49;48.30;;;29.63;;
33824;SDS011;20127;48.962;8.342;2024-03-07T00:05:03;53.85;;;29.92;;
33824;SDS011;20127;48.962;8.342;2024-03-07T00:06:18;49.28;;;28.95;;
33824;SDS011;20127;48.962;8.342;2024-03-07T00:07:33;52.33;;;30.25;;
33824;SDS011;20127;48.962;8.342;2024-03-07T00:08:48;54.83;;;32.55;;
33824;SDS011;20127;48.962;8.342;2024-03-07T00:10:02;60.33;;;31.90;;
33824;SDS011;20127;48.962;8.342;2024-03-07T00:11:20;56.40;;;31.90;;
33824;SDS011;20127;48.962;8.342;2024-03-07T00:12:35;63.05;;;34.45;;
33824;SDS011;20127;48.962;8.342;2024-03-07T00:13:49;57.88;;;30.90;;
33824;SDS011;20127;48.962;8.342;2024-03-07T00:15:03;58.40;;;32.55;;
33824;SDS011;20127;48.962;8.342;2024-03-07T00:16:18;62.30;;;34.85;;
33824;SDS011;20127;48.962;8.342;2024-03-07T00:17:31;59.83;;;36.63;;
33824;SDS011;20127;48.962;8.342;2024-03-07T00:18:46;55.25;;;33.80;;
33824;SDS011;20127;48.962;8.342;2024-03-07T00:19:59;59.47;;;36.10;;
33824;SDS011;20127;48.962;8.342;2024-03-07T00:21:13;57.63;;;33.80;;
33824;SDS011;20127;48.962;8.342;2024-03-07T00:22:27;61.20;;;32.72;;
33824;SDS011;20127;48.962;8.342;2024-03-07T00:23:42;60.88;;;31.52;;
33824;SDS011;20127;48.962;8.342;2024-03-07T00:24:56;57.58;;;30.23;;
33824;SDS011;20127;48.962;8.342;2024-03-07T00:26:12;53.35;;;30.02;;
33824;SDS011;20127;48.962;8.342;2024-03-07T00:27:27;54.45;;;29.10;;
33824;SDS011;20127;48.962;8.342;2024-03-07T00:28:41;53.78;;;30.20;;
33824;SDS011;20127;48.962;8.342;2024-03-07T00:29:55;60.03;;;30.55;;
33824;SDS011;20127;48.962;8.342;2024-03-07T00:31:10;48.03;;;27.85;;
33824;SDS011;20127;48.962;8.342;2024-03-07T00:32:24;54.90;;;28.83;;
33824;SDS011;20127;48.962;8.342;2024-03-07T00:33:40;55.50;;;31.52;;
33824;SDS011;20127;48.962;8.342;2024-03-07T00:34:53;51.13;;;28.98;;
33824;SDS011;20127;48.962;8.342;2024-03-07T00:36:07;60.60;;;33.88;;
33824;SDS011;20127;48.962;8.342;2024-03-07T00:37:21;55.30;;;31.65;;
33824;SDS011;20127;48.962;8.342;2024-03-07T00:38:35;61.35;;;31.42;;
33824;SDS011;20127;48.962;8.342;2024-03-07T00:39:49;52.63;;;29.98;;
33824;SDS011;20127;48.962;8.342;2024-03-07T00:41:02;56.10;;;33.75;;
33824;SDS011;20127;48.962;8.342;2024-03-07T00:42:17;67.40;;;33.53;;
33824;SDS011;20127;48.962;8.342;2024-03-07T00:43:32;65.97;;;33.80;;
33824;SDS011;20127;48.962;8.342;2024-03-07T00:44:46;58.13;;;34.25;;
33824;SDS011;20127;48.962;8.342;2024-03-07T00:46:00;65.65;;;35.92;;
33824;SDS011;20127;48.962;8.342;2024-03-07T00:47:14;61.25;;;35.03;;
33824;SDS011;20127;48.962;8.342;2024-03-07T00:48:28;57.97;;;36.70;;
33824;SDS011;20127;48.962;8.342;2024-03-07T00:49:42;57.42;;;34.65;;
33824;SDS011;20127;48.962;8.342;2024-03-07T00:50:56;65.68;;;34.78;;
33824;SDS011;20127;48.962;8.342;2024-03-07T00:52:09;56.55;;;34.10;;
33824;SDS011;20127;48.962;8.342;2024-03-07T00:53:24;60.58;;;36.35;;
33824;SDS011;20127;48.962;8.342;2024-03-07T00:54:37;64.38;;;36.58;;
33824;SDS011;20127;48.962;8.342;2024-03-07T00:55:52;70.25;;;37.55;;
33824;SDS011;20127;48.962;8.342;2024-03-07T00:57:07;67.28;;;35.97;;
33824;SDS011;20127;48.962;8.342;2024-03-07T00:58:21;69.28;;;38.25;;
33824;SDS011;20127;48.962;8.342;2024-03-07T00:59:36;64.82;;;37.97;;
33824;SDS011;20127;48.962;8.342;2024-03-07T01:00:51;62.20;;;35.90;;
33824;SDS011;20127;48.962;8.342;2024-03-07T01:02:04;63.65;;;37.10;;
33824;SDS011;20127;48.962;8.342;2024-03-07T01:03:20;64.03;;;36.67;;
33824;SDS011;20127;48.962;8.342;2024-03-07T01:04:33;71.75;;;39.45;;
33824;SDS011;20127;48.962;8.342;2024-03-07T01:05:48;76.28;;;42.03;;
33824;SDS011;20127;48.962;8.342;2024-03-07T01:07:01;75.25;;;42.58;;
33824;SDS011;20127;48.962;8.342;2024-03-07T01:08:16;78.40;;;40.97;;
33824;SDS011;20127;48.962;8.342;2024-03-07T01:09:29;76.22;;;45.00;;
33824;SDS011;20127;48.962;8.342;2024-03-07T01:10:44;81.45;;;42.10;;
33824;SDS011;20127;48.962;8.342;2024-03-07T01:11:57;78.55;;;43.03;;
33824;SDS011;20127;48.962;8.342;2024-03-07T01:13:13;90.07;;;47.17;;
33824;SDS011;20127;48.962;8.342;2024-03-07T01:14:32;83.55;;;46.75;;
33824;SDS011;20127;48.962;8.342;2024-03-07T01:15:47;80.75;;;45.10;;
33824;SDS011;20127;48.962;8.342;2024-03-07T01:17:01;82.28;;;47.70;;
33824;SDS011;20127;48.962;8.342;2024-03-07T01:18:16;85.88;;;46.92;;
33824;SDS011;20127;48.962;8.342;2024-03-07T01:19:30;89.80;;;49.40;;
33824;SDS011;20127;48.962;8.342;2024-03-07T01:20:45;84.80;;;47.35;;
33824;SDS011;20127;48.962;8.342;2024-03-07T01:21:59;84.90;;;49.75;;
33824;SDS011;20127;48.962;8.342;2024-03-07T01:23:13;90.50;;;46.65;;
33824;SDS011;20127;48.962;8.342;2024-03-07T01:24:27;81.50;;;44.88;;
33824;SDS011;20127;48.962;8.342;2024-03-07T01:25:41;82.80;;;47.20;;
33824;SDS011;20127;48.962;8.342;2024-03-07T01:26:55;76.97;;;45.45;;
33824;SDS011;20127;48.962;8.342;2024-03-07T01:28:09;80.97;;;43.88;;
33824;SDS011;20127;48.962;8.342;2024-03-07T01:29:25;91.28;;;46.53;;
33824;SDS011;20127;48.962;8.342;2024-03-07T01:30:40;74.15;;;46.05;;
33824;SDS011;20127;48.962;8.342;2024-03-07T01:31:54;76.03;;;48.42;;
33824;SDS011;20127;48.962;8.342;2024-03-07T01:33:09;74.88;;;47.28;;
33824;SDS011;20127;48.962;8.342;2024-03-07T01:34:22;87.43;;;47.00;;
33824;SDS011;20127;48.962;8.342;2024-03-07T01:35:37;78.35;;;45.17;;
33824;SDS011;20127;48.962;8.342;2024-03-07T01:36:50;69.65;;;40.08;;
33824;SDS011;20127;48.962;8.342;2024-03-07T01:38:05;74.65;;;43.95;;
33824;SDS011;20127;48.962;8.342;2024-03-07T01:39:18;67.05;;;43.88;;
33824;SDS011;20127;48.962;8.342;2024-03-07T01:40:32;65.10;;;41.05;;
33824;SDS011;20127;48.962;8.342;2024-03-07T01:41:46;69.38;;;42.83;;
33824;SDS011;20127;48.962;8.342;2024-03-07T01:43:01;68.32;;;41.33;;
33824;SDS011;20127;48.962;8.342;2024-03-07T01:44:14;71.07;;;41.30;;
33824;SDS011;20127;48.962;8.342;2024-03-07T01:45:29;68.40;;;42.90;;
33824;SDS011;20127;48.962;8.342;2024-03-07T01:46:42;60.95;;;40.22;;
33824;SDS011;20127;48.962;8.342;2024-03-07T01:47:58;55.60;;;37.63;;
33824;SDS011;20127;48.962;8.342;2024-03-07T01:49:12;61.83;;;40.13;;
33824;SDS011;20127;48.962;8.342;2024-03-07T01:50:26;62.83;;;39.70;;
33824;SDS011;20127;48.962;8.342;2024-03-07T01:51:40;62.88;;;38.30;;
33824;SDS011;20127;48.962;8.342;2024-03-07T01:52:55;64.18;;;42.85;;
33824;SDS011;20127;48.962;8.342;2024-03-07T01:54:09;59.10;;;40.15;;
33824;SDS011;20127;48.962;8.342;2024-03-07T01:55:24;61.63;;;38.25;;
33824;SDS011;20127;48.962;8.342;2024-03-07T01:56:37;63.72;;;40.15;;
33824;SDS011;20127;48.962;8.342;2024-03-07T01:57:53;61.13;;;41.40;;
33824;SDS011;20127;48.962;8.342;2024-03-07T01:59:10;56.53;;;38.67;;
33824;SDS011;20127;48.962;8.342;2024-03-07T02:00:25;54.80;;;38.63;;
33824;SDS011;20127;48.962;8.342;2024-03-07T02:01:38;65.93;;;39.65;;
33824;SDS011;20127;48.962;8.342;2024-03-07T02:02:53;62.30;;;38.28;;
33824;SDS011;20127;48.962;8.342;2024-03-07T02:04:08;54.28;;;35.90;;
33824;SDS011;20127;48.962;8.342;2024-03-07T02:05:22;58.53;;;39.30;;
33824;SDS011;20127;48.962;8.342;2024-03-07T02:06:36;56.42;;;38.38;;
33824;SDS011;20127;48.962;8.342;2024-03-07T02:07:51;53.85;;;36.95;;
33824;SDS011;20127;48.962;8.342;2024-03-07T02:09:05;53.90;;;37.50;;
33824;SDS011;20127;48.962;8.342;2024-03-07T02:10:20;52.13;;;36.40;;
33824;SDS011;20127;48.962;8.342;2024-03-07T02:11:33;56.38;;;38.47;;
33824;SDS011;20127;48.962;8.342;2024-03-07T02:12:47;53.30;;;35.88;;
33824;SDS011;20127;48.962;8.342;2024-03-07T02:14:01;61.75;;;41.50;;
33824;SDS011;20127;48.962;8.342;2024-03-07T02:15:15;52.92;;;37.58;;
33824;SDS011;20127;48.962;8.342;2024-03-07T02:16:29;60.63;;;38.95;;
33824;SDS011;20127;48.962;8.342;2024-03-07T02:17:44;55.03;;;36.22;;
33824;SDS011;20127;48.962;8.342;2024-03-07T02:18:58;56.80;;;36.58;;
33824;SDS011;20127;48.962;8.342;2024-03-07T02:20:15;54.25;;;37.72;;
33824;SDS011;20127;48.962;8.342;2024-03-07T02:21:30;55.38;;;40.25;;
33824;SDS011;20127;48.962;8.342;2024-03-07T02:22:45;49.40;;;36.58;;
33824;SDS011;20127;48.962;8.342;2024-03-07T02:23:59;50.13;;;35.40;;
33824;SDS011;20127;48.962;8.342;2024-03-07T02:25:13;60.88;;;40.85;;
33824;SDS011;20127;48.962;8.342;2024-03-07T02:26:27;56.13;;;36.78;;
33824;SDS011;20127;48.962;8.342;2024-03-07T02:27:41;60.55;;;41.40;;
33824;SDS011;20127;48.962;8.342;2024-03-07T02:28:54;50.72;;;36.67;;
33824;SDS011;20127;48.962;8.342;2024-03-07T02:30:09;53.92;;;37.65;;
33824;SDS011;20127;48.962;8.342;2024-03-07T02:31:25;55.47;;;40.08;;
33824;SDS011;20127;48.962;8.342;2024-03-07T02:32:48;60.97;;;38.63;;
33824;SDS011;20127;48.962;8.342;2024-03-07T02:34:04;50.85;;;35.70;;
33824;SDS011;20127;48.962;8.342;2024-03-07T02:35:20;55.88;;;38.10;;
33824;SDS011;20127;48.962;8.342;2024-03-07T02:36:35;57.42;;;36.20;;
33824;SDS011;20127;48.962;8.342;2024-03-07T02:37:50;52.58;;;34.50;;
33824;SDS011;20127;48.962;8.342;2024-03-07T02:39:03;59.05;;;34.97;;
33824;SDS011;20127;48.962;8.342;2024-03-07T02:40:19;55.00;;;36.65;;
33824;SDS011;20127;48.962;8.342;2024-03-07T02:41:32;53.92;;;38.13;;
33824;SDS011;20127;48.962;8.342;2024-03-07T02:42:47;55.88;;;39.33;;
33824;SDS011;20127;48.962;8.342;2024-03-07T02:44:01;51.50;;;34.55;;
33824;SDS011;20127;48.962;8.342;2024-03-07T02:45:16;59.88;;;36.88;;
33824;SDS011;20127;48.962;8.342;2024-03-07T02:46:30;52.45;;;38.67;;
33824;SDS011;20127;48.962;8.342;2024-03-07T02:47:45;53.03;;;36.33;;
33824;SDS011;20127;48.962;8.342;2024-03-07T02:48:59;54.03;;;36.53;;
33824;SDS011;20127;48.962;8.342;2024-03-07T02:50:12;59.92;;;40.40;;
33824;SDS011;20127;48.962;8.342;2024-03-07T02:51:27;52.97;;;39.63;;
33824;SDS011;20127;48.962;8.342;2024-03-07T02:52:42;55.85;;;38.22;;
33824;SDS011;20127;48.962;8.342;2024-03-07T02:53:57;55.53;;;38.40;;
33824;SDS011;20127;48.962;8.342;2024-03-07T02:55:10;53.30;;;35.90;;
33824;SDS011;20127;48.962;8.342;2024-03-07T02:56:26;55.72;;;37.08;;
33824;SDS011;20127;48.962;8.342;2024-03-07T02:57:39;53.83;;;36.55;;
33824;SDS011;20127;48.962;8.342;2024-03-07T02:58:54;57.13;;;38.92;;
33824;SDS011;20127;48.962;8.342;2024-03-07T03:00:08;52.80;;;34.60;;
33824;SDS011;20127;48.962;8.342;2024-03-07T03:01:32;57.53;;;37.47;;
33824;SDS011;20127;48.962;8.342;2024-03-07T03:02:46;54.08;;;36.95;;
33824;SDS011;20127;48.962;8.342;2024-03-07T03:04:01;48.97;;;35.97;;
33824;SDS011;20127;48.962;8.342;2024-03-07T03:05:16;49.15;;;35.67;;
33824;SDS011;20127;48.962;8.342;2024-03-07T03:06:31;53.83;;;38.28;;
33824;SDS011;20127;48.962;8.342;2024-03-07T03:07:46;51.72;;;36.80;;
33824;SDS011;20127;48.962;8.342;2024-03-07T03:09:06;54.63;;;35.80;;
33824;SDS011;20127;48.962;8.342;2024-03-07T03:10:26;51.80;;;36.45;;
33824;SDS011;20127;48.962;8.342;2024-03-07T03:11:41;49.85;;;33.97;;
33824;SDS011;20127;48.962;8.342;2024-03-07T03:12:55;46.83;;;33.17;;
33824;SDS011;20127;48.962;8.342;2024-03-07T03:14:10;49.67;;;36.05;;
33824;SDS011;20127;48.962;8.342;2024-03-07T03:15:24;62.03;;;37.58;;
33824;SDS011;20127;48.962;8.342;2024-03-07T03:16:40;55.95;;;38.28;;
33824;SDS011;20127;48.962;8.342;2024-03-07T03:17:55;55.33;;;36.45;;
33824;SDS011;20127;48.962;8.342;2024-03-07T03:19:12;48.83;;;34.35;;
33824;SDS011;20127;48.962;8.342;2024-03-07T03:20:25;49.65;;;34.65;;
33824;SDS011;20127;48.962;8.342;2024-03-07T03:21:46;53.50;;;35.45;;
33824;SDS011;20127;48.962;8.342;2024-03-07T03:23:01;51.17;;;35.28;;
33824;SDS011;20127;48.962;8.342;2024-03-07T03:24:16;54.55;;;37.58;;
33824;SDS011;20127;48.962;8.342;2024-03-07T03:25:30;50.30;;;35.60;;
33824;SDS011;20127;48.962;8.342;2024-03-07T03:26:48;51.78;;;33.38;;
33824;SDS011;20127;48.962;8.342;2024-03-07T03:28:01;51.78;;;37.88;;
33824;SDS011;20127;48.962;8.342;2024-03-07T03:29:16;49.40;;;34.55;;
33824;SDS011;20127;48.962;8.342;2024-03-07T03:30:31;50.03;;;36.85;;
33824;SDS011;20127;48.962;8.342;2024-03-07T03:31:45;50.33;;;33.30;;
33824;SDS011;20127;48.962;8.342;2024-03-07T03:32:59;57.58;;;38.05;;
33824;SDS011;20127;48.962;8.342;2024-03-07T03:34:13;49.17;;;35.83;;
33824;SDS011;20127;48.962;8.342;2024-03-07T03:35:27;50.55;;;35.42;;
33824;SDS011;20127;48.962;8.342;2024-03-07T03:36:42;46.33;;;33.83;;
33824;SDS011;20127;48.962;8.342;2024-03-07T03:37:55;51.03;;;34.30;;
33824;SDS011;20127;48.962;8.342;2024-03-07T03:39:11;55.67;;;35.45;;
33824;SDS011;20127;48.962;8.342;2024-03-07T03:40:26;54.17;;;37.42;;
33824;SDS011;20127;48.962;8.342;2024-03-07T03:41:40;52.90;;;38.45;;
33824;SDS011;20127;48.962;8.342;2024-03-07T03:42:54;53.60;;;36.95;;
33824;SDS011;20127;48.962;8.342;2024-03-07T03:44:08;50.90;;;35.78;;
33824;SDS011;20127;48.962;8.342;2024-03-07T03:45:22;53.88;;;35.40;;
33824;SDS011;20127;48.962;8.342;2024-03-07T03:46:38;57.42;;;37.20;;
33824;SDS011;20127;48.962;8.342;2024-03-07T03:47:51;50.38;;;35.60;;
33824;SDS011;20127;48.962;8.342;2024-03-07T03:49:06;56.20;;;37.30;;
33824;SDS011;20127;48.962;8.342;2024-03-07T03:50:20;56.50;;;39.60;;
33824;SDS011;20127;48.962;8.342;2024-03-07T03:51:35;56.10;;;36.28;;
33824;SDS011;20127;48.962;8.342;2024-03-07T03:52:49;55.78;;;37.22;;
33824;SDS011;20127;48.962;8.342;2024-03-07T03:54:03;54.88;;;37.33;;
33824;SDS011;20127;48.962;8.342;2024-03-07T03:55:20;57.72;;;40.08;;
33824;SDS011;20127;48.962;8.342;2024-03-07T03:56:34;54.97;;;36.25;;
33824;SDS011;20127;48.962;8.342;2024-03-07T03:57:48;60.45;;;38.80;;
33824;SDS011;20127;48.962;8.342;2024-03-07T03:59:02;52.75;;;36.13;;
33824;SDS011;20127;48.962;8.342;2024-03-07T04:00:17;59.35;;;36.58;;
33824;SDS011;20127;48.962;8.342;2024-03-07T04:01:35;59.85;;;39.25;;
33824;SDS011;20127;48.962;8.342;2024-03-07T04:02:49;60.67;;;39.03;;
33824;SDS011;20127;48.962;8.342;2024-03-07T04:04:04;60.58;;;38.67;;
33824;SDS011;20127;48.962;8.342;2024-03-07T04:05:18;64.15;;;37.25;;
33824;SDS011;20127;48.962;8.342;2024-03-07T04:06:34;62.97;;;40.90;;
33824;SDS011;20127;48.962;8.342;2024-03-07T04:07:48;55.75;;;40.38;;
33824;SDS011;20127;48.962;8.342;2024-03-07T04:09:02;55.78;;;39.30;;
33824;SDS011;20127;48.962;8.342;2024-03-07T04:10:17;57.88;;;39.28;;
33824;SDS011;20127;48.962;8.342;2024-03-07T04:11:33;55.58;;;38.88;;
33824;SDS011;20127;48.962;8.342;2024-03-07T04:12:47;61.25;;;41.22;;
33824;SDS011;20127;48.962;8.342;2024-03-07T04:14:01;59.63;;;38.22;;
33824;SDS011;20127;48.962;8.342;2024-03-07T04:15:15;55.80;;;38.40;;
33824;SDS011;20127;48.962;8.342;2024-03-07T04:16:30;54.78;;;38.13;;
33824;SDS011;20127;48.962;8.342;2024-03-07T04:17:43;61.50;;;38.67;;
33824;SDS011;20127;48.962;8.342;2024-03-07T04:18:59;69.70;;;39.80;;
33824;SDS011;20127;48.962;8.342;2024-03-07T04:20:12;57.17;;;37.67;;
33824;SDS011;20127;48.962;8.342;2024-03-07T04:21:27;63.53;;;40.50;;
33824;SDS011;20127;48.962;8.342;2024-03-07T04:22:40;57.67;;;39.15;;
33824;SDS011;20127;48.962;8.342;2024-03-07T04:23:55;63.95;;;40.78;;
33824;SDS011;20127;48.962;8.342;2024-03-07T04:25:08;55.72;;;38.42;;
33824;SDS011;20127;48.962;8.342;2024-03-07T04:26:23;63.53;;;37.65;;
33824;SDS011;20127;48.962;8.342;2024-03-07T04:27:38;60.72;;;38.42;;
33824;SDS011;20127;48.962;8.342;2024-03-07T04:28:53;56.20;;;39.50;;
33824;SDS011;20127;48.962;8.342;2024-03-07T04:30:07;60.15;;;38.67;;
33824;SDS011;20127;48.962;8.342;2024-03-07T04:31:22;62.30;;;38.78;;
33824;SDS011;20127;48.962;8.342;2024-03-07T04:32:36;63.28;;;41.42;;
33824;SDS011;20127;48.962;8.342;2024-03-07T04:33:51;59.42;;;42.25;;
33824;SDS011;20127;48.962;8.342;2024-03-07T04:35:04;64.75;;;36.88;;
33824;SDS011;20127;48.962;8.342;2024-03-07T04:36:23;59.10;;;39.03;;
33824;SDS011;20127;48.962;8.342;2024-03-07T04:37:36;56.78;;;40.85;;
33824;SDS011;20127;48.962;8.342;2024-03-07T04:38:51;60.25;;;35.90;;
33824;SDS011;20127;48.962;8.342;2024-03-07T04:40:04;62.25;;;41.50;;
33824;SDS011;20127;48.962;8.342;2024-03-07T04:41:28;59.15;;;37.88;;
33824;SDS011;20127;48.962;8.342;2024-03-07T04:42:44;58.72;;;42.30;;
33824;SDS011;20127;48.962;8.342;2024-03-07T04:43:58;80.43;;;52.00;;
33824;SDS011;20127;48.962;8.342;2024-03-07T04:45:13;63.38;;;43.47;;
33824;SDS011;20127;48.962;8.342;2024-03-07T04:46:27;64.32;;;38.30;;
33824;SDS011;20127;48.962;8.342;2024-03-07T04:47:41;60.22;;;40.03;;
33824;SDS011;20127;48.962;8.342;2024-03-07T04:48:56;60.75;;;38.88;;
33824;SDS011;20127;48.962;8.342;2024-03-07T04:50:10;71.82;;;42.70;;
33824;SDS011;20127;48.962;8.342;2024-03-07T04:51:25;57.47;;;36.83;;
33824;SDS011;20127;48.962;8.342;2024-03-07T04:52:39;59.95;;;39.30;;
33824;SDS011;20127;48.962;8.342;2024-03-07T04:53:53;66.70;;;39.45;;
33824;SDS011;20127;48.962;8.342;2024-03-07T04:55:07;64.90;;;41.40;;
33824;SDS011;20127;48.962;8.342;2024-03-07T04:56:23;58.53;;;39.33;;
33824;SDS011;20127;48.962;8.342;2024-03-07T04:57:36;59.42;;;40.30;;
33824;SDS011;20127;48.962;8.342;2024-03-07T04:58:54;64.82;;;42.97;;
33824;SDS011;20127;48.962;8.342;2024-03-07T05:00:08;63.55;;;40.78;;
33824;SDS011;20127;48.962;8.342;2024-03-07T05:01:26;60.50;;;35.30;;
33824;SDS011;20127;48.962;8.342;2024-03-07T05:02:40;60.53;;;40.00;;
33824;SDS011;20127;48.962;8.342;2024-03-07T05:03:54;59.40;;;40.28;;
33824;SDS011;20127;48.962;8.342;2024-03-07T05:05:08;68.38;;;41.38;;
33824;SDS011;20127;48.962;8.342;2024-03-07T05:06:22;59.47;;;39.42;;
33824;SDS011;20127;48.962;8.342;2024-03-07T05:07:35;59.00;;;38.33;;
33824;SDS011;20127;48.962;8.342;2024-03-07T05:08:50;63.25;;;42.25;;
33824;SDS011;20127;48.962;8.342;2024-03-07T05:10:04;58.67;;;38.80;;
33824;SDS011;20127;48.962;8.342;2024-03-07T05:11:19;66.13;;;38.28;;
33824;SDS011;20127;48.962;8.342;2024-03-07T05:12:34;64.78;;;41.03;;
33824;SDS011;20127;48.962;8.342;2024-03-07T05:13:49;56.53;;;39.75;;
33824;SDS011;20127;48.962;8.342;2024-03-07T05:15:06;62.55;;;39.97;;
33824;SDS011;20127;48.962;8.342;2024-03-07T05:16:22;60.38;;;41.80;;
33824;SDS011;20127;48.962;8.342;2024-03-07T05:17:36;61.28;;;40.10;;
33824;SDS011;20127;48.962;8.342;2024-03-07T05:18:52;60.10;;;38.22;;
33824;SDS011;20127;48.962;8.342;2024-03-07T05:20:06;64.20;;;40.53;;
33824;SDS011;20127;48.962;8.342;2024-03-07T05:21:23;61.83;;;39.33;;
33824;SDS011;20127;48.962;8.342;2024-03-07T05:22:47;61.67;;;38.72;;
33824;SDS011;20127;48.962;8.342;2024-03-07T05:24:03;63.25;;;38.78;;
33824;SDS011;20127;48.962;8.342;2024-03-07T05:25:17;63.45;;;39.42;;
33824;SDS011;20127;48.962;8.342;2024-03-07T05:26:32;62.03;;;38.67;;
33824;SDS011;20127;48.962;8.342;2024-03-07T05:27:46;66.93;;;40.03;;
33824;SDS011;20127;48.962;8.342;2024-03-07T05:29:03;57.58;;;37.80;;
33824;SDS011;20127;48.962;8.342;2024-03-07T05:30:20;66.72;;;42.17;;
33824;SDS011;20127;48.962;8.342;2024-03-07T05:31:36;72.10;;;43.17;;
33824;SDS011;20127;48.962;8.342;2024-03-07T05:32:50;64.88;;;38.30;;
33824;SDS011;20127;48.962;8.342;2024-03-07T05:34:05;59.85;;;39.53;;
33824;SDS011;20127;48.962;8.342;2024-03-07T05:35:21;66.63;;;40.78;;
33824;SDS011;20127;48.962;8.342;2024-03-07T05:36:35;61.42;;;40.35;;
33824;SDS011;20127;48.962;8.342;2024-03-07T05:37:49;64.30;;;42.55;;
33824;SDS011;20127;48.962;8.342;2024-03-07T05:39:03;64.32;;;42.72;;
33824;SDS011;20127;48.962;8.342;2024-03-07T05:40:22;61.80;;;39.55;;
33824;SDS011;20127;48.962;8.342;2024-03-07T05:41:37;68.43;;;43.53;;
33824;SDS011;20127;48.962;8.342;2024-03-07T05:42:51;60.17;;;39.17;;
33824;SDS011;20127;48.962;8.342;2024-03-07T05:44:06;61.60;;;41.10;;
33824;SDS011;20127;48.962;8.342;2024-03-07T05:45:23;63.70;;;43.92;;
33824;SDS011;20127;48.962;8.342;2024-03-07T05:46:37;60.78;;;38.42;;
33824;SDS011;20127;48.962;8.342;2024-03-07T05:47:54;62.97;;;41.53;;
33824;SDS011;20127;48.962;8.342;2024-03-07T05:49:09;73.38;;;43.30;;
33824;SDS011;20127;48.962;8.342;2024-03-07T05:50:22;62.72;;;39.10;;
33824;SDS011;20127;48.962;8.342;2024-03-07T05:51:37;61.05;;;40.80;;
33824;SDS011;20127;48.962;8.342;2024-03-07T05:52:50;65.57;;;42.75;;
33824;SDS011;20127;48.962;8.342;2024-03-07T05:54:05;66.18;;;41.20;;
33824;SDS011;20127;48.962;8.342;2024-03-07T05:55:19;67.10;;;43.88;;
33824;SDS011;20127;48.962;8.342;2024-03-07T05:56:35;63.42;;;37.65;;
33824;SDS011;20127;48.962;8.342;2024-03-07T05:57:48;61.90;;;38.88;;
33824;SDS011;20127;48.962;8.342;2024-03-07T05:59:03;59.05;;;38.83;;
33824;SDS011;20127;48.962;8.342;2024-03-07T06:00:17;55.65;;;39.25;;
33824;SDS011;20127;48.962;8.342;2024-03-07T06:01:41;65.85;;;40.78;;
33824;SDS011;20127;48.962;8.342;2024-03-07T06:02:55;63.35;;;40.30;;
33824;SDS011;20127;48.962;8.342;2024-03-07T06:04:09;60.92;;;39.65;;
33824;SDS011;20127;48.962;8.342;2024-03-07T06:05:23;59.30;;;41.05;;
33824;SDS011;20127;48.962;8.342;2024-03-07T06:06:38;71.05;;;41.05;;
33824;SDS011;20127;48.962;8.342;2024-03-07T06:07:51;66.85;;;37.78;;
33824;SDS011;20127;48.962;8.342;2024-03-07T06:09:07;60.63;;;37.30;;
33824;SDS011;20127;48.962;8.342;2024-03-07T06:10:21;64.20;;;40.65;;
33824;SDS011;20127;48.962;8.342;2024-03-07T06:11:37;65.28;;;42.63;;
33824;SDS011;20127;48.962;8.342;2024-03-07T06:12:51;58.90;;;39.63;;
33824;SDS011;20127;48.962;8.342;2024-03-07T06:14:06;63.83;;;39.60;;
33824;SDS011;20127;48.962;8.342;2024-03-07T06:15:20;66.93;;;39.65;;
33824;SDS011;20127;48.962;8.342;2024-03-07T06:16:36;64.70;;;39.40;;
33824;SDS011;20127;48.962;8.342;2024-03-07T06:17:52;65.03;;;40.65;;
33824;SDS011;20127;48.962;8.342;2024-03-07T06:19:07;63.65;;;41.20;;
33824;SDS011;20127;48.962;8.342;2024-03-07T06:20:21;65.40;;;41.60;;
33824;SDS011;20127;48.962;8.342;2024-03-07T06:21:38;63.45;;;39.60;;
33824;SDS011;20127;48.962;8.342;2024-03-07T06:22:52;68.15;;;38.97;;
33824;SDS011;20127;48.962;8.342;2024-03-07T06:24:07;66.13;;;43.15;;
33824;SDS011;20127;48.962;8.342;2024-03-07T06:25:21;61.92;;;40.72;;
33824;SDS011;20127;48.962;8.342;2024-03-07T06:26:47;67.72;;;40.85;;
33824;SDS011;20127;48.962;8.342;2024-03-07T06:28:02;62.25;;;39.25;;
33824;SDS011;20127;48.962;8.342;2024-03-07T06:29:22;69.07;;;42.65;;
33824;SDS011;20127;48.962;8.342;2024-03-07T06:30:36;61.40;;;38.67;;
33824;SDS011;20127;48.962;8.342;2024-03-07T06:31:52;63.60;;;38.38;;
33824;SDS011;20127;48.962;8.342;2024-03-07T06:33:08;64.50;;;39.97;;
33824;SDS011;20127;48.962;8.342;2024-03-07T06:34:22;58.65;;;38.35;;
33824;SDS011;20127;48.962;8.342;2024-03-07T06:35:36;66.93;;;44.85;;
33824;SDS011;20127;48.962;8.342;2024-03-07T06:36:51;55.08;;;38.85;;
33824;SDS011;20127;48.962;8.342;2024-03-07T06:38:05;56.22;;;38.63;;
33824;SDS011;20127;48.962;8.342;2024-03-07T06:39:19;63.60;;;39.28;;
33824;SDS011;20127;48.962;8.342;2024-03-07T06:40:35;64.35;;;40.72;;
33824;SDS011;20127;48.962;8.342;2024-03-07T06:41:49;63.53;;;42.05;;
33824;SDS011;20127;48.962;8.342;2024-03-07T06:43:03;58.45;;;39.25;;
33824;SDS011;20127;48.962;8.342;2024-03-07T06:44:19;62.22;;;38.72;;
33824;SDS011;20127;48.962;8.342;2024-03-07T06:45:36;57.03;;;36.78;;
33824;SDS011;20127;48.962;8.342;2024-03-07T06:46:50;56.47;;;36.30;;
33824;SDS011;20127;48.962;8.342;2024-03-07T06:48:04;66.25;;;38.05;;
33824;SDS011;20127;48.962;8.342;2024-03-07T06:49:22;57.58;;;39.15;;
33824;SDS011;20127;48.962;8.342;2024-03-07T06:50:35;60.08;;;39.35;;
33824;SDS011;20127;48.962;8.342;2024-03-07T06:51:50;66.40;;;41.75;;
33824;SDS011;20127;48.962;8.342;2024-03-07T06:53:03;63.03;;;40.40;;
33824;SDS011;20127;48.962;8.342;2024-03-07T06:54:19;61.33;;;36.88;;
33824;SDS011;20127;48.962;8.342;2024-03-07T06:55:34;49.63;;;37.75;;
33824;SDS011;20127;48.962;8.342;2024-03-07T06:56:49;60.75;;;40.85;;
33824;SDS011;20127;48.962;8.342;2024-03-07T06:58:03;55.67;;;37.03;;
33824;SDS011;20127;48.962;8.342;2024-03-07T06:59:18;58.47;;;39.53;;
33824;SDS011;20127;48.962;8.342;2024-03-07T07:00:32;61.88;;;36.20;;
33824;SDS011;20127;48.962;8.342;2024-03-07T07:01:49;55.15;;;36.28;;
33824;SDS011;20127;48.962;8.342;2024-03-07T07:03:02;50.75;;;33.70;;
33824;SDS011;20127;48.962;8.342;2024-03-07T07:04:18;52.92;;;37.13;;
33824;SDS011;20127;48.962;8.342;2024-03-07T07:05:34;51.28;;;36.78;;
33824;SDS011;20127;48.962;8.342;2024-03-07T07:06:48;51.83;;;35.72;;
33824;SDS011;20127;48.962;8.342;2024-03-07T07:08:02;55.45;;;38.67;;
33824;SDS011;20127;48.962;8.342;2024-03-07T07:09:17;54.42;;;37.55;;
33824;SDS011;20127;48.962;8.342;2024-03-07T07:10:32;50.58;;;35.65;;
33824;SDS011;20127;48.962;8.342;2024-03-07T07:11:46;53.97;;;37.55;;
33824;SDS011;20127;48.962;8.342;2024-03-07T07:13:00;51.88;;;32.78;;
33824;SDS011;20127;48.962;8.342;2024-03-07T07:14:14;58.33;;;37.92;;
33824;SDS011;20127;48.962;8.342;2024-03-07T07:15:28;51.63;;;36.65;;
33824;SDS011;20127;48.962;8.342;2024-03-07T07:16:42;60.00;;;36.88;;